Time;durP1;ratioP1;P1;durP2;ratioP2;P2;SDS_P1;SDS_P2;PMS_P1;PMS_P2;Temp;Humidity;BMP_temperature;BMP_pressure;BME280_temperature;BME280_humidity;BME280_pressure;Samples;Min_cycle;Max_cycle;Signal;HPM_P1;HPM_P2
2022/06/16 00:00:28;;;;;;;13.85;7.28;;;11.70;99.90;;;;;;4990794;28;20474;-79
2022/06/16 00:02:53;;;;;;;11.73;6.70;;;11.60;99.90;;;;;;4989592;28;20054;-78
2022/06/16 00:05:22;;;;;;;10.27;5.88;;;11.50;99.90;;;;;;4988633;28;20054;-79
2022/06/16 00:07:48;;;;;;;10.70;6.60;;;11.50;99.90;;;;;;4985184;28;20081;-79
2022/06/16 00:10:15;;;;;;;8.90;6.28;;;11.40;99.90;;;;;;4990982;28;20033;-79
2022/06/16 00:12:41;;;;;;;8.98;6.00;;;11.40;99.90;;;;;;4989771;28;20084;-79
2022/06/16 00:15:10;;;;;;;7.90;5.53;;;11.30;99.90;;;;;;4991539;28;20472;-79
2022/06/16 00:17:36;;;;;;;8.45;5.50;;;11.20;99.90;;;;;;4991463;28;20027;-79
2022/06/16 00:20:04;;;;;;;10.23;5.90;;;11.20;99.90;;;;;;4990716;28;20029;-79
2022/06/16 00:22:31;;;;;;;14.57;8.68;;;11.10;99.90;;;;;;5005334;22;20133;-78
2022/06/16 00:24:56;;;;;;;16.42;9.75;;;11.10;99.90;;;;;;4971517;28;20485;-79
2022/06/16 00:27:22;;;;;;;14.32;8.27;;;11.20;99.90;;;;;;4971425;28;20117;-79
2022/06/16 00:29:48;;;;;;;14.18;8.13;;;11.30;99.90;;;;;;4971888;28;20081;-79
2022/06/16 00:32:13;;;;;;;9.18;6.13;;;11.40;99.90;;;;;;4973770;28;20022;-79
2022/06/16 00:34:39;;;;;;;9.45;6.93;;;11.40;99.90;;;;;;4975242;28;20031;-79
2022/06/16 00:37:05;;;;;;;12.80;8.35;;;11.30;99.90;;;;;;4975807;28;20070;-79
2022/06/16 00:39:31;;;;;;;11.57;7.00;;;11.30;99.90;;;;;;4974986;28;20027;-79
2022/06/16 00:42:16;;;;;;;11.95;7.25;;;11.20;99.90;;;;;;4975295;28;20042;-79
2022/06/16 00:44:45;;;;;;;10.63;6.85;;;11.10;99.90;;;;;;4975235;28;20026;-80
2022/06/16 00:47:12;;;;;;;12.05;7.03;;;11.00;99.90;;;;;;4975269;28;20030;-79
2022/06/16 00:49:41;;;;;;;9.75;6.22;;;10.90;99.90;;;;;;4974769;28;20654;-80
2022/06/16 00:52:16;;;;;;;11.20;5.78;;;10.90;99.90;;;;;;4955504;28;20019;-79
2022/06/16 00:55:02;;;;;;;10.57;7.03;;;10.90;99.90;;;;;;4973274;28;20033;-79
2022/06/16 00:57:35;;;;;;;9.82;7.25;;;11.00;99.90;;;;;;4975045;28;20090;-79
2022/06/16 01:00:10;;;;;;;10.25;7.25;;;11.00;99.90;;;;;;4974996;28;20066;-79
2022/06/16 01:02:36;;;;;;;9.95;7.47;;;11.00;99.90;;;;;;4955541;28;20155;-79
2022/06/16 01:05:02;;;;;;;13.23;7.13;;;11.00;99.90;;;;;;4975078;28;20474;-79
2022/06/16 01:07:33;;;;;;;13.77;6.78;;;11.00;99.90;;;;;;4974080;28;20027;-79
2022/06/16 01:10:00;;;;;;;12.68;7.10;;;11.00;99.90;;;;;;4974603;28;20015;-79
2022/06/16 01:15:47;;;;;;;14.10;6.90;;;10.80;99.90;;;;;;4970641;28;20041;-79
2022/06/16 01:18:34;;;;;;;8.75;5.28;;;10.70;99.90;;;;;;4974661;28;20023;-79
2022/06/16 01:21:11;;;;;;;9.90;5.25;;;10.70;99.90;;;;;;4975769;23;20028;-79
2022/06/16 01:23:46;;;;;;;9.15;5.47;;;10.60;99.90;;;;;;5009295;28;20426;-79
2022/06/16 01:26:38;;;;;;;6.80;4.90;;;10.60;99.90;;;;;;5014053;28;20022;-79
2022/06/16 01:29:30;;;;;;;9.75;5.95;;;10.50;99.90;;;;;;5010678;28;20025;-79
2022/06/16 01:32:38;;;;;;;12.27;6.18;;;10.50;99.90;;;;;;5013502;28;20462;-79
2022/06/16 01:35:26;;;;;;;9.88;6.47;;;10.70;99.90;;;;;;5007791;28;20053;-79
2022/06/16 01:37:52;;;;;;;8.00;5.40;;;10.70;99.90;;;;;;5007983;28;20045;-78
2022/06/16 01:40:30;;;;;;;7.22;5.43;;;10.60;99.90;;;;;;5013710;28;20057;-78
2022/06/16 01:43:21;;;;;;;10.95;6.88;;;10.50;99.90;;;;;;5012960;28;20344;-78
2022/06/16 01:46:00;;;;;;;9.52;6.47;;;10.50;99.90;;;;;;5006443;28;20030;-78
2022/06/16 01:48:28;;;;;;;9.05;6.47;;;10.50;99.90;;;;;;5013850;28;20033;-79
2022/06/16 01:51:11;;;;;;;9.18;5.63;;;10.40;99.90;;;;;;5013531;28;20068;-78
2022/06/16 01:53:45;;;;;;;6.78;5.15;;;10.30;99.90;;;;;;5013692;28;20049;-79
2022/06/16 01:56:33;;;;;;;7.75;5.32;;;10.20;99.90;;;;;;5013742;28;20018;-79
2022/06/16 01:59:04;;;;;;;10.35;6.10;;;10.10;99.90;;;;;;5009717;28;20029;-79
2022/06/16 02:01:38;;;;;;;8.85;5.40;;;10.10;99.90;;;;;;5013382;28;20061;-79
2022/06/16 02:04:10;;;;;;;7.15;5.22;;;10.20;99.90;;;;;;5006571;28;20398;-79
2022/06/16 02:06:41;;;;;;;8.00;5.03;;;10.30;99.90;;;;;;5012477;28;20553;-78
2022/06/16 02:09:12;;;;;;;6.75;4.57;;;10.30;99.90;;;;;;5013231;28;20018;-78
2022/06/16 02:11:41;;;;;;;6.10;5.10;;;10.20;99.90;;;;;;5013543;28;20026;-79
2022/06/16 02:14:32;;;;;;;8.20;5.03;;;10.10;99.90;;;;;;4998246;28;20507;-79
2022/06/16 02:16:59;;;;;;;7.68;4.95;;;10.10;99.90;;;;;;5018904;28;20080;-79
2022/06/16 02:19:26;;;;;;;8.50;5.05;;;10.20;99.90;;;;;;5013501;28;20110;-79
2022/06/16 02:21:52;;;;;;;6.47;4.32;;;10.10;99.90;;;;;;5034218;23;20042;-79
2022/06/16 02:24:22;;;;;;;7.20;4.32;;;10.10;99.90;;;;;;5012583;28;20041;-79
2022/06/16 02:26:49;;;;;;;6.78;4.38;;;10.00;99.90;;;;;;5006306;28;20022;-79
2022/06/16 02:29:37;;;;;;;5.65;4.18;;;9.90;99.90;;;;;;5013489;28;20061;-79
2022/06/16 02:32:11;;;;;;;7.20;5.20;;;9.80;99.90;;;;;;5013139;28;20036;-79
2022/06/16 02:34:37;;;;;;;8.77;5.07;;;9.90;99.90;;;;;;5013063;28;20053;-79
2022/06/16 02:37:15;;;;;;;9.52;5.55;;;9.90;99.90;;;;;;5012707;28;20446;-79
2022/06/16 02:39:54;;;;;;;8.13;5.07;;;9.90;99.90;;;;;;5007277;28;20030;-79
2022/06/16 02:42:40;;;;;;;7.28;4.38;;;9.90;99.90;;;;;;5009442;28;20513;-79
2022/06/16 02:45:09;;;;;;;6.28;4.13;;;9.90;99.90;;;;;;5007105;28;20046;-79
2022/06/16 02:47:59;;;;;;;6.00;4.22;;;9.80;99.90;;;;;;5012722;28;20018;-79
2022/06/16 02:50:28;;;;;;;6.80;4.47;;;9.70;99.90;;;;;;5019781;28;20131;-79
2022/06/16 02:56:42;;;;;;;6.68;4.35;;;9.60;99.90;;;;;;4997371;28;20049;-78
2022/06/16 02:59:19;;;;;;;6.13;4.32;;;9.60;99.90;;;;;;5010556;28;20080;-79
2022/06/16 03:01:46;;;;;;;7.22;4.43;;;9.50;99.90;;;;;;5012443;28;20084;-78
2022/06/16 03:04:15;;;;;;;7.05;4.50;;;9.40;99.90;;;;;;5012546;28;20017;-78
2022/06/16 03:06:41;;;;;;;8.55;4.40;;;9.40;99.90;;;;;;5012091;28;20501;-79
2022/06/16 03:09:07;;;;;;;9.88;5.10;;;9.40;99.90;;;;;;5012576;28;20080;-79
2022/06/16 03:11:35;;;;;;;7.95;5.63;;;9.50;99.90;;;;;;5012073;28;20026;-79
2022/06/16 03:14:02;;;;;;;7.55;5.80;;;9.50;99.90;;;;;;5009477;28;20375;-79
2022/06/16 03:16:28;;;;;;;9.00;5.22;;;9.50;99.90;;;;;;5012191;28;20033;-79
2022/06/16 03:18:54;;;;;;;11.25;5.40;;;9.60;99.90;;;;;;5012341;28;20463;-79
2022/06/16 03:21:20;;;;;;;10.55;5.93;;;9.60;99.90;;;;;;5026052;23;20052;-79
2022/06/16 03:23:46;;;;;;;7.18;4.93;;;9.60;99.90;;;;;;4994633;28;20065;-79
2022/06/16 03:26:12;;;;;;;7.00;5.00;;;9.60;99.90;;;;;;4992701;28;20165;-79
2022/06/16 03:28:38;;;;;;;9.23;4.50;;;9.50;99.90;;;;;;4985626;28;20030;-79
2022/06/16 03:31:03;;;;;;;9.68;5.20;;;9.50;99.90;;;;;;4992210;28;20037;-79
2022/06/16 03:33:29;;;;;;;7.72;5.22;;;9.40;99.90;;;;;;4992233;28;20487;-79
2022/06/16 03:35:56;;;;;;;12.20;5.05;;;9.30;99.90;;;;;;4992467;28;20027;-79
2022/06/16 03:40:54;;;;;;;;;;;9.20;99.90;;;;;;4992640;28;20641;-79
2022/06/16 03:43:20;;;;;;;6.68;4.60;;;9.20;99.90;;;;;;4992224;28;19917;-78
2022/06/16 03:45:46;;;;;;;6.90;4.10;;;9.10;99.90;;;;;;4992454;28;20022;-78
2022/06/16 03:48:12;;;;;;;7.00;4.32;;;9.20;99.90;;;;;;4992194;28;20015;-78
2022/06/16 03:50:38;;;;;;;6.30;4.40;;;9.10;99.90;;;;;;4992438;28;20041;-78
2022/06/16 03:53:04;;;;;;;6.28;4.80;;;9.10;99.90;;;;;;4995201;28;20472;-79
2022/06/16 03:55:31;;;;;;;8.55;4.72;;;9.10;99.90;;;;;;4989805;28;20022;-79
2022/06/16 03:57:58;;;;;;;13.45;5.85;;;9.10;99.90;;;;;;4991918;28;20105;-79
2022/06/16 04:00:24;;;;;;;12.73;5.70;;;9.10;99.90;;;;;;4998809;28;20054;-79
2022/06/16 04:05:35;;;;;;;6.97;5.30;;;9.20;99.90;;;;;;4991808;28;20081;-79
2022/06/16 04:08:01;;;;;;;7.13;5.70;;;9.20;99.90;;;;;;4991218;28;20079;-79
2022/06/16 04:10:27;;;;;;;9.35;6.00;;;9.30;99.90;;;;;;4991996;28;20026;-79
2022/06/16 04:12:52;;;;;;;7.43;5.47;;;9.30;99.90;;;;;;4991852;28;20357;-79
2022/06/16 04:15:18;;;;;;;8.98;5.07;;;9.40;99.90;;;;;;4991834;28;20032;-79
2022/06/16 04:17:44;;;;;;;7.95;5.22;;;9.40;99.90;;;;;;4991816;28;20033;-79
2022/06/16 04:20:13;;;;;;;7.05;5.03;;;9.40;99.90;;;;;;4991964;28;20487;-78
2022/06/16 04:22:40;;;;;;;6.68;5.00;;;9.40;99.90;;;;;;5012434;23;20038;-78
2022/06/16 04:25:09;;;;;;;7.22;5.07;;;9.40;99.90;;;;;;4971931;28;20046;-78
2022/06/16 04:27:35;;;;;;;6.90;5.68;;;9.40;99.90;;;;;;4971716;28;20034;-79
2022/06/16 04:30:01;;;;;;;10.05;5.43;;;9.40;99.90;;;;;;4971646;28;20447;-78
2022/06/16 04:32:27;;;;;;;10.13;5.63;;;9.40;99.90;;;;;;4971679;28;20122;-79
2022/06/16 04:34:53;;;;;;;11.70;6.60;;;9.40;99.90;;;;;;4971447;28;20097;-79
2022/06/16 04:37:19;;;;;;;12.27;6.38;;;9.50;99.90;;;;;;4971066;28;20019;-78
2022/06/16 04:39:44;;;;;;;11.45;7.53;;;9.70;99.90;;;;;;4971518;28;20023;-78
2022/06/16 04:42:10;;;;;;;9.45;7.18;;;9.90;99.90;;;;;;4971128;28;20023;-78
2022/06/16 04:44:36;;;;;;;10.40;6.63;;;10.10;99.90;;;;;;4971368;28;20030;-78
2022/06/16 04:47:02;;;;;;;11.30;6.93;;;10.20;99.90;;;;;;4971663;28;20023;-79
2022/06/16 04:49:29;;;;;;;11.30;6.25;;;10.30;99.90;;;;;;4971472;28;20365;-79
2022/06/16 04:51:54;;;;;;;9.10;6.18;;;10.50;99.90;;;;;;4969937;28;20118;-78
2022/06/16 04:54:20;;;;;;;9.02;6.53;;;10.60;99.90;;;;;;4971816;28;20487;-78
2022/06/16 04:56:46;;;;;;;11.13;6.80;;;10.70;99.90;;;;;;4971674;28;20026;-79
2022/06/16 04:59:13;;;;;;;12.48;6.25;;;10.90;99.90;;;;;;4971358;28;20023;-79
2022/06/16 05:01:40;;;;;;;9.35;6.53;;;11.00;99.90;;;;;;4971132;28;20053;-78
2022/06/16 05:04:06;;;;;;;9.60;6.78;;;11.10;99.90;;;;;;4971282;28;20575;-79
2022/06/16 05:06:32;;;;;;;9.95;6.68;;;11.20;99.90;;;;;;4970904;28;20052;-79
2022/06/16 05:08:58;;;;;;;8.13;5.90;;;11.30;99.90;;;;;;4971115;28;20022;-78
2022/06/16 05:11:24;;;;;;;7.70;5.80;;;11.30;99.90;;;;;;4971665;28;20049;-78
2022/06/16 05:13:49;;;;;;;9.82;6.78;;;11.40;99.90;;;;;;4970835;28;20097;-79
2022/06/16 05:16:15;;;;;;;10.27;6.57;;;11.50;99.90;;;;;;4971074;28;20015;-79
2022/06/16 05:18:41;;;;;;;9.90;6.90;;;11.50;99.90;;;;;;4971569;28;20033;-79
2022/06/16 05:23:36;;;;;;;11.18;6.57;;;11.80;99.90;;;;;;5014448;28;20070;-78
2022/06/16 05:26:03;;;;;;;9.20;6.22;;;11.80;99.90;;;;;;5013695;28;20061;-78
2022/06/16 05:28:30;;;;;;;9.48;6.20;;;12.00;99.90;;;;;;5013090;28;20041;-78
2022/06/16 05:30:56;;;;;;;7.75;5.13;;;12.00;99.90;;;;;;5013375;28;20032;-78
2022/06/16 05:33:22;;;;;;;10.68;6.18;;;12.10;99.90;;;;;;5013654;28;20108;-77
2022/06/16 05:35:58;;;;;;;11.30;5.22;;;12.20;99.90;;;;;;5013118;28;20670;-78
2022/06/16 05:38:24;;;;;;;8.90;5.88;;;12.20;99.90;;;;;;5012830;28;20022;-78
2022/06/16 05:41:02;;;;;;;13.30;7.20;;;12.30;99.90;;;;;;5013043;28;20044;-78
2022/06/16 05:43:28;;;;;;;12.90;6.07;;;12.50;99.90;;;;;;4995627;28;20025;-77
2022/06/16 05:45:54;;;;;;;7.55;5.43;;;12.60;99.90;;;;;;5006407;28;20061;-77
2022/06/16 05:48:21;;;;;;;11.82;6.03;;;12.50;99.90;;;;;;5012848;28;20046;-78
2022/06/16 05:50:46;;;;;;;11.60;5.57;;;12.60;99.90;;;;;;5012440;28;20025;-78
2022/06/16 05:53:12;;;;;;;9.30;6.20;;;12.50;99.90;;;;;;5015206;28;20018;-78
2022/06/16 05:55:38;;;;;;;9.48;6.25;;;12.50;99.90;;;;;;5012813;28;20014;-78
2022/06/16 05:58:04;;;;;;;8.68;5.32;;;12.50;99.90;;;;;;5012829;28;20028;-78
2022/06/16 06:00:30;;;;;;;9.30;5.45;;;12.50;99.90;;;;;;5012591;28;20073;-78
2022/06/16 06:02:58;;;;;;;10.45;6.35;;;12.50;99.90;;;;;;5012455;28;20083;-78
2022/06/16 06:05:24;;;;;;;9.93;6.18;;;12.60;99.90;;;;;;5012907;28;20072;-78
2022/06/16 06:18:48;;;;;;;8.00;6.05;;;13.10;99.90;;;;;;5007849;28;20103;-78
2022/06/16 06:23:42;;;;;;;7.18;5.25;;;13.70;99.90;;;;;;5050845;28;20470;-79
2022/06/16 06:26:12;;;;;;;8.02;5.47;;;14.10;99.90;;;;;;5052720;28;20539;-79
2022/06/16 06:28:37;;;;;;;7.88;4.88;;;14.60;99.90;;;;;;5046375;28;20028;-80
2022/06/16 06:31:03;;;;;;;5.82;4.35;;;15.20;99.90;;;;;;5052444;28;20017;-80
2022/06/16 06:33:29;;;;;;;8.13;4.93;;;15.80;99.90;;;;;;5032913;28;20029;-80
2022/06/16 06:35:57;;;;;;;6.20;4.03;;;16.20;99.90;;;;;;5032572;28;20097;-80
2022/06/16 06:38:22;;;;;;;7.20;4.70;;;16.70;99.90;;;;;;5015097;28;20572;-80
2022/06/16 06:40:48;;;;;;;5.05;3.58;;;17.20;99.90;;;;;;5032730;28;20517;-80
2022/06/16 06:43:14;;;;;;;4.07;3.45;;;17.50;99.90;;;;;;5014938;28;20455;-80
2022/06/16 06:45:40;;;;;;;6.43;4.05;;;17.50;99.90;;;;;;5032437;28;20026;-81
2022/06/16 06:48:07;;;;;;;6.45;4.45;;;17.40;99.90;;;;;;5032772;28;20478;-80
2022/06/16 06:50:40;;;;;;;6.35;4.30;;;17.70;99.90;;;;;;5032292;28;20036;-80
2022/06/16 06:53:07;;;;;;;7.43;4.10;;;17.80;99.90;;;;;;5027001;28;20028;-85
2022/06/16 06:55:36;;;;;;;8.95;4.60;;;17.70;99.90;;;;;;5028783;28;20589;-81
2022/06/16 06:58:03;;;;;;;6.07;3.85;;;17.80;99.90;;;;;;5025580;28;20022;-81
2022/06/16 07:00:29;;;;;;;6.88;3.45;;;18.10;99.90;;;;;;5031942;28;20108;-80
2022/06/16 07:02:55;;;;;;;6.68;4.50;;;18.00;99.90;;;;;;5031509;28;20443;-80
2022/06/16 07:05:21;;;;;;;6.93;4.30;;;17.80;99.90;;;;;;5031919;28;20029;-80
2022/06/16 07:07:48;;;;;;;5.30;4.70;;;17.60;99.90;;;;;;5031821;28;20101;-80
2022/06/16 07:10:15;;;;;;;9.48;4.75;;;17.40;99.90;;;;;;5021433;28;20482;-82
2022/06/16 07:12:41;;;;;;;5.07;3.97;;;17.30;99.90;;;;;;5027939;28;20021;-81
2022/06/16 07:15:08;;;;;;;6.40;4.60;;;17.30;99.90;;;;;;5036709;28;20104;-80
2022/06/16 07:17:34;;;;;;;8.10;4.93;;;17.30;99.90;;;;;;5010721;28;20037;-80
2022/06/16 07:19:59;;;;;;;7.90;4.05;;;17.30;99.90;;;;;;5026629;28;20022;-80
2022/06/16 07:22:25;;;;;;;6.22;4.88;;;17.40;99.90;;;;;;5029672;28;20037;-79
2022/06/16 07:24:51;;;;;;;6.50;4.82;;;17.40;99.90;;;;;;5031447;28;20096;-79
2022/06/16 07:27:19;;;;;;;6.13;4.88;;;17.30;99.90;;;;;;5029777;28;20112;-80
2022/06/16 07:29:49;;;;;;;6.05;4.25;;;17.40;99.90;;;;;;5025303;28;20068;-80
2022/06/16 07:32:16;;;;;;;6.85;4.30;;;17.60;99.90;;;;;;5023678;28;20017;-80
2022/06/16 07:34:42;;;;;;;7.03;4.75;;;17.60;99.90;;;;;;5031121;28;20016;-79
2022/06/16 07:37:08;;;;;;;5.68;4.38;;;17.60;99.90;;;;;;5031056;28;20022;-80
2022/06/16 07:39:34;;;;;;;6.22;3.65;;;17.80;99.90;;;;;;5013261;28;20029;-80
2022/06/16 07:42:00;;;;;;;5.25;4.40;;;17.90;99.90;;;;;;5030909;28;20164;-81
2022/06/16 07:44:25;;;;;;;5.22;3.65;;;18.10;99.90;;;;;;5031415;28;20021;-79
2022/06/16 07:46:51;;;;;;;8.48;4.90;;;18.30;99.90;;;;;;5031318;28;20351;-80
2022/06/16 07:49:22;;;;;;;9.23;4.15;;;18.20;99.90;;;;;;5031856;28;20037;-80
2022/06/16 07:51:49;;;;;;;9.10;4.40;;;18.30;99.90;;;;;;5047350;22;20049;-87
2022/06/16 07:54:15;;;;;;;6.95;4.40;;;18.40;99.90;;;;;;5012010;28;20037;-86
2022/06/16 07:56:41;;;;;;;5.95;4.10;;;18.50;99.90;;;;;;5005440;28;20030;-87
2022/06/16 07:59:07;;;;;;;5.07;3.40;;;18.60;99.90;;;;;;5009501;28;20026;-86
2022/06/16 08:01:32;;;;;;;4.60;3.17;;;18.70;99.90;;;;;;5011260;28;20049;-87
2022/06/16 08:04:05;;;;;;;4.28;3.72;;;18.90;99.90;;;;;;5011709;28;20040;-87
2022/06/16 08:06:31;;;;;;;4.88;3.38;;;19.00;99.90;;;;;;5011468;28;20026;-86
2022/06/16 08:08:57;;;;;;;5.78;2.92;;;19.10;99.90;;;;;;5011748;28;20026;-86
2022/06/16 08:14:07;;;;;;;3.95;2.65;;;19.40;99.90;;;;;;5005493;28;20028;-86
2022/06/16 08:16:33;;;;;;;4.35;2.05;;;19.60;96.10;;;;;;5011491;28;20018;-86
2022/06/16 08:19:00;;;;;;;4.07;2.63;;;19.70;99.90;;;;;;5011632;28;20022;-87
2022/06/16 08:21:26;;;;;;;2.40;1.98;;;19.90;99.90;;;;;;5011187;28;20120;-86
2022/06/16 08:23:52;;;;;;;5.93;2.72;;;20.10;97.40;;;;;;5010659;28;20025;-86
2022/06/16 08:26:19;;;;;;;4.95;2.25;;;20.30;97.60;;;;;;5011476;28;20026;-86
2022/06/16 08:28:45;;;;;;;3.05;2.22;;;20.50;97.50;;;;;;5011591;28;20022;-86
2022/06/16 08:31:11;;;;;;;4.43;2.20;;;20.70;90.80;;;;;;5011157;28;20381;-86
2022/06/16 08:33:37;;;;;;;7.30;2.70;;;20.90;93.30;;;;;;5010573;28;20022;-86
2022/06/16 08:36:03;;;;;;;4.72;2.38;;;21.20;90.50;;;;;;5011401;28;20371;-87
2022/06/16 08:38:29;;;;;;;3.22;2.25;;;21.60;90.60;;;;;;5017584;28;20057;-86
2022/06/16 08:41:13;;;;;;;3.15;2.03;;;22.20;82.90;;;;;;5010169;28;20065;-87
2022/06/16 08:43:58;;;;;;;8.43;2.55;;;23.00;78.40;;;;;;5011541;28;20025;-87
2022/06/16 08:46:30;;;;;;;3.08;2.10;;;24.20;72.50;;;;;;5011744;28;20013;-88
2022/06/16 08:49:01;;;;;;;6.30;2.63;;;25.40;69.60;;;;;;5010196;28;20018;-88
2022/06/16 08:51:53;;;;;;;2.38;2.15;;;26.10;61.40;;;;;;5033821;23;20025;-88
2022/06/16 08:54:33;;;;;;;4.22;1.90;;;27.20;61.70;;;;;;4974839;28;20027;-87
2022/06/16 08:57:26;;;;;;;5.35;2.40;;;28.20;60.60;;;;;;4976074;28;20129;-87
2022/06/16 09:00:05;;;;;;;3.50;1.75;;;29.40;53.70;;;;;;4972688;28;20027;-88
2022/06/16 09:02:55;;;;;;;6.07;2.40;;;30.30;50.50;;;;;;4975424;28;20042;-88
2022/06/16 09:05:21;;;;;;;4.35;1.90;;;30.10;48.20;;;;;;4975693;28;20034;-89
2022/06/16 09:08:18;;;;;;;5.00;1.33;;;30.90;49.60;;;;;;4975318;28;20027;-88
2022/06/16 09:10:44;;;;;;;4.45;1.95;;;31.40;45.80;;;;;;4971643;28;20081;-88
2022/06/16 09:13:39;;;;;;;2.47;1.52;;;30.80;45.10;;;;;;4975366;28;20019;-87
2022/06/16 09:16:28;;;;;;;4.53;1.73;;;30.60;44.20;;;;;;4970797;28;20043;-87
2022/06/16 09:19:20;;;;;;;2.75;1.77;;;30.90;45.50;;;;;;4973990;28;20448;-87
2022/06/16 09:22:08;;;;;;;3.97;2.00;;;31.30;45.90;;;;;;4970709;28;20039;-87
2022/06/16 09:24:57;;;;;;;5.45;1.90;;;31.60;45.00;;;;;;4974421;28;20498;-88
2022/06/16 09:27:37;;;;;;;5.38;1.85;;;31.70;44.20;;;;;;4974695;28;20033;-87
2022/06/16 09:30:11;;;;;;;3.23;1.60;;;32.40;46.30;;;;;;4974998;28;20019;-88
2022/06/16 09:32:55;;;;;;;4.68;1.50;;;33.40;43.30;;;;;;4974902;28;20141;-87
2022/06/16 09:35:36;;;;;;;5.05;1.40;;;33.70;40.00;;;;;;4974717;28;20022;-87
2022/06/16 09:38:20;;;;;;;6.45;2.13;;;33.90;39.90;;;;;;4974721;28;20023;-88
2022/06/16 09:40:49;;;;;;;4.72;1.85;;;33.10;38.70;;;;;;4974665;28;20062;-89
2022/06/16 09:43:39;;;;;;;3.28;1.60;;;33.40;38.80;;;;;;4974386;28;20473;-86
2022/06/16 09:46:23;;;;;;;2.42;1.20;;;33.50;40.40;;;;;;4970571;28;20019;-88
2022/06/16 09:49:02;;;;;;;2.80;1.63;;;33.60;41.50;;;;;;4974710;28;20030;-90
2022/06/16 09:51:29;;;;;;;7.97;2.35;;;32.50;38.20;;;;;;5000376;23;20391;-86
2022/06/16 09:54:05;;;;;;;4.07;1.50;;;31.70;39.70;;;;;;4981494;28;20038;-89
2022/06/16 09:56:58;;;;;;;2.42;1.60;;;31.30;41.70;;;;;;4977425;28;20030;-91
2022/06/16 09:59:26;;;;;;;3.35;1.58;;;31.10;42.80;;;;;;4970502;28;20023;-90
2022/06/16 10:02:05;;;;;;;5.57;1.70;;;32.00;43.90;;;;;;4999022;28;20025;-90
2022/06/16 10:04:31;;;;;;;3.67;1.77;;;32.80;41.30;;;;;;4978213;28;20026;-91
2022/06/16 10:07:14;;;;;;;4.65;2.20;;;32.70;41.70;;;;;;4974322;28;20022;-88
2022/06/16 10:09:52;;;;;;;3.78;2.35;;;32.40;39.60;;;;;;4981570;28;20018;-90
2022/06/16 10:12:27;;;;;;;6.43;2.42;;;32.30;42.00;;;;;;4977119;28;20030;-90
2022/06/16 10:15:23;;;;;;;6.30;2.75;;;32.60;42.40;;;;;;4970553;28;20045;-89
2022/06/16 10:17:51;;;;;;;8.52;3.20;;;33.80;41.10;;;;;;4980108;28;20018;-91
2022/06/16 10:20:19;;;;;;;2.85;2.30;;;34.50;37.00;;;;;;4977136;28;20260;-91
2022/06/16 10:22:55;;;;;;;4.65;3.45;;;33.40;40.70;;;;;;4976943;28;20077;-90
2022/06/16 10:25:30;;;;;;;4.95;2.70;;;33.30;39.70;;;;;;5001705;28;20038;-91
2022/06/16 10:28:20;;;;;;;5.97;3.30;;;33.20;42.20;;;;;;4976909;28;20034;-90
2022/06/16 10:30:46;;;;;;;5.30;3.08;;;33.40;38.50;;;;;;4979051;28;20034;-92
2022/06/16 10:33:33;;;;;;;7.90;3.17;;;32.70;39.40;;;;;;4999704;28;20037;-88
2022/06/16 10:36:07;;;;;;;6.88;2.95;;;32.90;40.00;;;;;;4972725;28;20022;-91
2022/06/16 10:38:41;;;;;;;8.70;4.05;;;32.90;39.40;;;;;;4994872;28;20035;-89
2022/06/16 10:41:24;;;;;;;4.78;2.78;;;32.60;40.00;;;;;;4983645;28;20117;-90
2022/06/16 10:43:53;;;;;;;7.90;3.38;;;32.70;41.20;;;;;;4984049;28;20018;-89
2022/06/16 10:46:30;;;;;;;4.53;2.22;;;33.20;39.90;;;;;;4976925;28;20029;-91
2022/06/16 10:49:00;;;;;;;8.52;2.90;;;33.90;40.30;;;;;;4976708;28;20061;-90
2022/06/16 10:54:11;;;;;;;6.93;3.28;;;33.00;40.00;;;;;;5009783;28;20100;-78
2022/06/16 10:56:39;;;;;;;7.55;3.30;;;32.70;39.70;;;;;;5005092;28;20032;-78
2022/06/16 10:59:23;;;;;;;5.18;2.58;;;33.50;39.20;;;;;;5011501;28;20030;-77
2022/06/16 11:01:56;;;;;;;4.80;2.58;;;34.00;38.40;;;;;;5011020;28;20172;-78
2022/06/16 11:04:33;;;;;;;5.45;3.20;;;34.60;42.10;;;;;;5011160;28;20538;-79
2022/06/16 11:07:01;;;;;;;4.88;2.88;;;35.90;36.30;;;;;;5011327;28;20033;-78
2022/06/16 11:09:29;;;;;;;5.07;2.50;;;36.10;34.20;;;;;;4994408;28;20048;-78
2022/06/16 11:12:17;;;;;;;5.30;2.70;;;35.60;38.30;;;;;;5011150;28;20026;-78
2022/06/16 11:14:45;;;;;;;7.40;2.45;;;36.00;36.60;;;;;;5011506;28;20072;-78
2022/06/16 11:17:22;;;;;;;4.50;2.47;;;36.40;36.80;;;;;;5011211;28;20064;-78
2022/06/16 11:19:52;;;;;;;5.68;2.13;;;37.00;33.40;;;;;;5011370;28;20022;-79
2022/06/16 11:22:34;;;;;;;3.47;2.22;;;37.40;34.50;;;;;;5011107;28;20121;-79
2022/06/16 11:25:05;;;;;;;5.35;2.90;;;37.60;33.40;;;;;;5000774;28;20026;-78
2022/06/16 11:27:42;;;;;;;4.65;2.13;;;36.90;33.70;;;;;;5011437;28;20021;-78
2022/06/16 11:30:52;;;;;;;6.65;2.38;;;37.50;35.00;;;;;;5010939;28;20379;-78
2022/06/16 11:36:42;;;;;;;7.18;2.80;;;36.40;34.90;;;;;;5011259;28;20045;-77
2022/06/16 11:39:20;;;;;;;5.13;2.17;;;35.60;35.90;;;;;;5010733;28;20588;-78
2022/06/16 11:41:50;;;;;;;5.43;2.25;;;35.60;36.50;;;;;;5010974;28;20403;-78
2022/06/16 11:44:21;;;;;;;5.68;2.70;;;37.00;35.80;;;;;;5011053;28;20064;-78
2022/06/16 11:46:50;;;;;;;3.30;1.83;;;37.40;34.50;;;;;;5011440;28;20112;-78
2022/06/16 11:49:32;;;;;;;3.30;1.92;;;36.80;35.70;;;;;;5011089;28;20018;-79
2022/06/16 11:52:40;;;;;;;7.20;1.92;;;37.90;34.40;;;;;;5034203;22;20065;-88
2022/06/16 11:55:26;;;;;;;3.88;1.80;;;38.80;31.10;;;;;;4911241;29;20115;-91
2022/06/16 11:58:16;;;;;;;5.65;2.03;;;38.20;33.00;;;;;;4994183;28;20398;-90
2022/06/16 12:00:51;;;;;;;3.78;1.73;;;38.30;31.40;;;;;;4978764;28;20534;-90
2022/06/16 12:03:30;;;;;;;3.38;1.80;;;38.30;32.70;;;;;;4999192;28;20109;-89
2022/06/16 12:06:21;;;;;;;2.20;1.17;;;37.90;32.80;;;;;;4994430;28;20018;-91
2022/06/16 12:08:58;;;;;;;4.53;1.30;;;38.40;35.90;;;;;;4995231;28;20026;-90
2022/06/16 12:11:39;;;;;;;3.10;1.23;;;39.10;33.60;;;;;;4974969;28;20034;-89
2022/06/16 12:14:07;;;;;;;;;;;39.50;30.20;;;;;;4969901;28;20041;-88
2022/06/16 12:16:41;;;;;;;3.70;1.17;;;40.20;32.20;;;;;;4981488;28;19905;-90
2022/06/16 12:19:15;;;;;;;4.32;1.40;;;40.10;30.10;;;;;;4999460;28;20022;-89
2022/06/16 12:45:22;;;;;;;4.15;1.40;;;40.10;28.90;;;;;;4995310;28;20102;-92
2022/06/16 12:47:58;;;;;;;3.15;1.10;;;40.50;31.90;;;;;;5000982;28;20023;-91
2022/06/16 12:50:33;;;;;;;1.60;1.10;;;41.20;32.80;;;;;;4979021;28;20030;-91
2022/06/16 12:53:13;;;;;;;3.50;1.10;;;41.10;29.30;;;;;;5027473;22;20137;-91
2022/06/16 12:55:48;;;;;;;3.50;1.53;;;40.60;29.50;;;;;;5028073;28;20108;-90
2022/06/16 12:58:22;;;;;;;4.53;1.13;;;39.00;29.20;;;;;;5003207;28;20026;-89
2022/06/16 13:00:53;;;;;;;2.47;1.00;;;38.90;31.60;;;;;;5000010;28;20026;-91
2022/06/16 13:03:32;;;;;;;1.15;0.80;;;38.20;31.20;;;;;;4998605;28;20048;-91
2022/06/16 13:05:58;;;;;;;2.83;1.13;;;38.60;32.10;;;;;;5020141;28;20152;-90
2022/06/16 13:08:31;;;;;;;8.23;1.13;;;38.60;31.10;;;;;;4991426;28;20030;-90
2022/06/16 13:11:01;;;;;;;3.72;1.13;;;38.90;31.20;;;;;;5021867;28;20018;-90
2022/06/16 13:13:37;;;;;;;1.23;1.10;;;38.90;31.10;;;;;;5004238;28;20172;-89
2022/06/16 13:16:04;;;;;;;1.60;1.02;;;38.10;31.20;;;;;;5021740;28;20026;-90
2022/06/16 13:18:43;;;;;;;4.05;1.08;;;37.50;32.60;;;;;;5004746;28;20046;-88
2022/06/16 13:21:08;;;;;;;3.95;1.08;;;36.10;32.30;;;;;;4991255;28;20391;-91
2022/06/16 13:23:40;;;;;;;2.55;1.05;;;36.80;33.70;;;;;;5013045;28;20029;-91
2022/06/16 13:26:15;;;;;;;2.05;1.10;;;37.40;33.00;;;;;;5000839;28;20101;-91
2022/06/16 13:29:00;;;;;;;1.35;0.90;;;37.60;32.10;;;;;;5004121;28;20160;-89
2022/06/16 13:31:47;;;;;;;4.75;1.35;;;38.40;31.10;;;;;;5021560;28;20029;-91
2022/06/16 13:34:18;;;;;;;2.55;1.10;;;38.70;32.30;;;;;;4997324;28;20022;-90
2022/06/16 13:36:44;;;;;;;2.17;1.20;;;38.30;29.80;;;;;;5003243;28;20030;-88
2022/06/16 13:39:48;;;;;;;1.90;1.05;;;38.20;29.50;;;;;;5002596;28;20018;-90
2022/06/16 13:42:22;;;;;;;3.65;1.25;;;38.10;31.70;;;;;;4998104;28;20037;-91
2022/06/16 13:45:12;;;;;;;1.73;1.05;;;39.20;34.30;;;;;;4997395;28;20415;-90
2022/06/16 13:47:47;;;;;;;1.23;1.05;;;38.80;29.70;;;;;;4991463;28;20506;-89
2022/06/16 13:50:39;;;;;;;3.15;1.33;;;38.90;29.10;;;;;;4990484;28;20676;-90
2022/06/16 13:53:06;;;;;;;4.03;1.38;;;37.90;31.40;;;;;;4990157;23;20036;-78
2022/06/16 13:55:52;;;;;;;1.17;1.00;;;37.10;32.40;;;;;;4937179;29;20052;-78
2022/06/16 13:58:30;;;;;;;2.38;1.00;;;37.70;32.60;;;;;;4954944;28;20027;-78
2022/06/16 14:01:12;;;;;;;0.80;0.80;;;37.80;34.20;;;;;;4954684;28;20019;-78
2022/06/16 14:03:53;;;;;;;2.58;1.30;;;39.20;33.30;;;;;;4954505;28;20015;-78
2022/06/16 14:06:24;;;;;;;2.33;1.20;;;39.90;29.40;;;;;;4954660;28;20030;-78
2022/06/16 14:08:52;;;;;;;3.40;1.45;;;38.40;30.80;;;;;;4954371;28;20055;-78
2022/06/16 14:11:26;;;;;;;1.52;0.90;;;37.10;31.60;;;;;;4954694;28;20039;-78
2022/06/16 14:14:18;;;;;;;1.30;1.00;;;35.60;35.80;;;;;;4948501;28;20023;-78